Main page
METAR-TAF:

METAR-TAF

Airports :

Skiathos International Airport

Skiathos, Greece

latitude: 39-11N, longitude: 023-30E, elevation: 15 m

Current weather observation

The report was made 1 hour and 6 minutes ago, at 08:50 UTC
Calm wind
Temperature 12°C
Humidity 82%
Pressure 1017 hPa
Visibility 10 km or more
Few clouds at a height of 3000 ft

METAR: LGSK 190850Z 00000KT 9999 FEW030 12/09 Q1017

Time: 11:56 (09:56 UTC)

Forecast

The report was made 1 hour and 56 minutes ago, at 08:00 UTC
Forecast valid from 19 at 09 UTC to 19 at 18 UTC
Wind 5 kt from variable directions
Visibility 10 km or more
Scattered clouds at a height of 1800 ft

TAF: LGSK 190800Z 1909/1918 VRB05KT 9999 SCT018

Weather observations and forecasts of more than 4000 airports (METAR and TAF reports).

The available stations are represented by yellow and red dots on the map.

Hover mouse over dot to see the name of the station.

Then click to see weather observations and forecasts.

To change the map : click on the green buttons with a black cross to zoom in, on the green button with a dash to zoom out, or on the green arrows for adjacent maps.


METAR-TAF: